sensor_id;sensor_type;location;lat;lon;timestamp;P1;durP1;ratioP1;P2;durP2;ratioP2
33367;SDS011;19724;51.114;13.906;2022-12-10T00:01:47;82.63;;;38.72;;
33367;SDS011;19724;51.114;13.906;2022-12-10T00:04:13;77.72;;;39.42;;
33367;SDS011;19724;51.114;13.906;2022-12-10T00:06:40;74.82;;;40.90;;
33367;SDS011;19724;51.114;13.906;2022-12-10T00:09:07;78.70;;;38.97;;
33367;SDS011;19724;51.114;13.906;2022-12-10T00:11:38;75.80;;;38.08;;
33367;SDS011;19724;51.114;13.906;2022-12-10T00:14:04;74.60;;;41.67;;
33367;SDS011;19724;51.114;13.906;2022-12-10T00:16:32;78.20;;;42.45;;
33367;SDS011;19724;51.114;13.906;2022-12-10T00:18:58;77.43;;;39.05;;
33367;SDS011;19724;51.114;13.906;2022-12-10T00:21:25;74.68;;;38.65;;
33367;SDS011;19724;51.114;13.906;2022-12-10T00:23:55;80.43;;;38.83;;
33367;SDS011;19724;51.114;13.906;2022-12-10T00:26:22;77.82;;;39.40;;
33367;SDS011;19724;51.114;13.906;2022-12-10T00:28:50;76.03;;;37.55;;
33367;SDS011;19724;51.114;13.906;2022-12-10T00:31:18;71.45;;;37.42;;
33367;SDS011;19724;51.114;13.906;2022-12-10T00:33:49;72.85;;;37.67;;
33367;SDS011;19724;51.114;13.906;2022-12-10T00:36:17;79.20;;;40.63;;
33367;SDS011;19724;51.114;13.906;2022-12-10T00:38:50;78.50;;;38.95;;
33367;SDS011;19724;51.114;13.906;2022-12-10T00:41:16;76.10;;;38.75;;
33367;SDS011;19724;51.114;13.906;2022-12-10T00:43:43;79.57;;;40.40;;
33367;SDS011;19724;51.114;13.906;2022-12-10T00:46:08;74.30;;;39.40;;
33367;SDS011;19724;51.114;13.906;2022-12-10T00:48:35;72.13;;;36.60;;
33367;SDS011;19724;51.114;13.906;2022-12-10T00:53:28;76.28;;;37.00;;
33367;SDS011;19724;51.114;13.906;2022-12-10T00:55:56;72.55;;;38.53;;
33367;SDS011;19724;51.114;13.906;2022-12-10T00:58:22;74.05;;;37.13;;
33367;SDS011;19724;51.114;13.906;2022-12-10T01:00:48;74.63;;;36.85;;
33367;SDS011;19724;51.114;13.906;2022-12-10T01:03:14;75.10;;;36.50;;
33367;SDS011;19724;51.114;13.906;2022-12-10T01:05:40;81.50;;;38.65;;
33367;SDS011;19724;51.114;13.906;2022-12-10T01:08:05;72.50;;;35.70;;
33367;SDS011;19724;51.114;13.906;2022-12-10T01:10:31;70.53;;;34.78;;
33367;SDS011;19724;51.114;13.906;2022-12-10T01:12:57;73.47;;;35.08;;
33367;SDS011;19724;51.114;13.906;2022-12-10T01:15:22;73.63;;;36.50;;
33367;SDS011;19724;51.114;13.906;2022-12-10T01:17:48;82.10;;;37.55;;
33367;SDS011;19724;51.114;13.906;2022-12-10T01:20:13;74.57;;;36.92;;
33367;SDS011;19724;51.114;13.906;2022-12-10T01:22:39;71.25;;;35.17;;
33367;SDS011;19724;51.114;13.906;2022-12-10T01:25:04;66.15;;;33.83;;
33367;SDS011;19724;51.114;13.906;2022-12-10T01:27:30;72.90;;;33.17;;
33367;SDS011;19724;51.114;13.906;2022-12-10T01:29:55;69.38;;;34.10;;
33367;SDS011;19724;51.114;13.906;2022-12-10T01:32:21;74.10;;;37.35;;
33367;SDS011;19724;51.114;13.906;2022-12-10T01:34:47;70.00;;;35.20;;
33367;SDS011;19724;51.114;13.906;2022-12-10T01:37:12;67.15;;;34.28;;
33367;SDS011;19724;51.114;13.906;2022-12-10T01:39:38;70.20;;;34.13;;
33367;SDS011;19724;51.114;13.906;2022-12-10T01:42:04;68.40;;;34.33;;
33367;SDS011;19724;51.114;13.906;2022-12-10T01:46:56;75.15;;;34.60;;
33367;SDS011;19724;51.114;13.906;2022-12-10T01:49:26;74.43;;;37.67;;
33367;SDS011;19724;51.114;13.906;2022-12-10T01:51:57;74.60;;;36.60;;
33367;SDS011;19724;51.114;13.906;2022-12-10T01:54:25;60.85;;;31.27;;
33367;SDS011;19724;51.114;13.906;2022-12-10T01:57:05;67.30;;;33.33;;
33367;SDS011;19724;51.114;13.906;2022-12-10T01:59:33;63.00;;;31.20;;
33367;SDS011;19724;51.114;13.906;2022-12-10T02:02:02;63.38;;;31.67;;
33367;SDS011;19724;51.114;13.906;2022-12-10T02:07:24;62.67;;;33.00;;
33367;SDS011;19724;51.114;13.906;2022-12-10T02:10:12;66.57;;;33.58;;
33367;SDS011;19724;51.114;13.906;2022-12-10T02:12:47;64.32;;;32.08;;
33367;SDS011;19724;51.114;13.906;2022-12-10T02:15:21;61.47;;;31.40;;
33367;SDS011;19724;51.114;13.906;2022-12-10T02:17:56;67.63;;;32.33;;
33367;SDS011;19724;51.114;13.906;2022-12-10T02:20:31;66.88;;;34.95;;
33367;SDS011;19724;51.114;13.906;2022-12-10T02:23:10;66.65;;;32.67;;
33367;SDS011;19724;51.114;13.906;2022-12-10T02:25:41;65.28;;;32.03;;
33367;SDS011;19724;51.114;13.906;2022-12-10T02:28:27;65.43;;;32.63;;
33367;SDS011;19724;51.114;13.906;2022-12-10T02:31:03;68.28;;;33.10;;
33367;SDS011;19724;51.114;13.906;2022-12-10T02:33:30;63.53;;;32.70;;
33367;SDS011;19724;51.114;13.906;2022-12-10T02:35:57;59.78;;;32.85;;
33367;SDS011;19724;51.114;13.906;2022-12-10T02:38:26;59.00;;;31.75;;
33367;SDS011;19724;51.114;13.906;2022-12-10T02:40:58;66.57;;;33.88;;
33367;SDS011;19724;51.114;13.906;2022-12-10T02:43:38;62.35;;;32.80;;
33367;SDS011;19724;51.114;13.906;2022-12-10T02:46:05;69.68;;;36.13;;
33367;SDS011;19724;51.114;13.906;2022-12-10T02:48:31;66.80;;;33.38;;
33367;SDS011;19724;51.114;13.906;2022-12-10T02:50:59;60.88;;;35.15;;
33367;SDS011;19724;51.114;13.906;2022-12-10T02:53:24;69.93;;;34.65;;
33367;SDS011;19724;51.114;13.906;2022-12-10T02:58:43;64.35;;;33.80;;
33367;SDS011;19724;51.114;13.906;2022-12-10T03:04:45;64.55;;;33.15;;
33367;SDS011;19724;51.114;13.906;2022-12-10T03:07:16;76.72;;;38.25;;
33367;SDS011;19724;51.114;13.906;2022-12-10T03:14:49;62.80;;;33.30;;
33367;SDS011;19724;51.114;13.906;2022-12-10T03:17:16;63.38;;;32.95;;
33367;SDS011;19724;51.114;13.906;2022-12-10T03:19:43;62.45;;;32.58;;
33367;SDS011;19724;51.114;13.906;2022-12-10T03:22:12;69.25;;;34.05;;
33367;SDS011;19724;51.114;13.906;2022-12-10T03:24:40;57.50;;;30.67;;
33367;SDS011;19724;51.114;13.906;2022-12-10T03:27:07;61.88;;;30.77;;
33367;SDS011;19724;51.114;13.906;2022-12-10T03:29:40;60.50;;;32.42;;
33367;SDS011;19724;51.114;13.906;2022-12-10T03:32:14;66.07;;;32.47;;
33367;SDS011;19724;51.114;13.906;2022-12-10T03:34:41;59.78;;;31.75;;
33367;SDS011;19724;51.114;13.906;2022-12-10T03:37:08;60.60;;;32.80;;
33367;SDS011;19724;51.114;13.906;2022-12-10T03:39:35;65.60;;;32.90;;
33367;SDS011;19724;51.114;13.906;2022-12-10T03:42:01;66.72;;;33.15;;
33367;SDS011;19724;51.114;13.906;2022-12-10T03:44:29;63.58;;;30.63;;
33367;SDS011;19724;51.114;13.906;2022-12-10T03:46:56;61.05;;;31.02;;
33367;SDS011;19724;51.114;13.906;2022-12-10T03:49:22;68.25;;;31.10;;
33367;SDS011;19724;51.114;13.906;2022-12-10T03:51:48;65.95;;;32.17;;
33367;SDS011;19724;51.114;13.906;2022-12-10T03:54:14;67.65;;;32.13;;
33367;SDS011;19724;51.114;13.906;2022-12-10T03:56:39;60.08;;;31.25;;
33367;SDS011;19724;51.114;13.906;2022-12-10T03:59:05;63.00;;;31.90;;
33367;SDS011;19724;51.114;13.906;2022-12-10T04:01:30;67.35;;;32.08;;
33367;SDS011;19724;51.114;13.906;2022-12-10T04:03:56;66.30;;;33.20;;
33367;SDS011;19724;51.114;13.906;2022-12-10T04:06:21;62.17;;;29.83;;
33367;SDS011;19724;51.114;13.906;2022-12-10T04:08:47;62.65;;;31.27;;
33367;SDS011;19724;51.114;13.906;2022-12-10T04:11:13;68.97;;;31.90;;
33367;SDS011;19724;51.114;13.906;2022-12-10T04:13:40;66.80;;;32.70;;
33367;SDS011;19724;51.114;13.906;2022-12-10T04:16:25;68.75;;;31.13;;
33367;SDS011;19724;51.114;13.906;2022-12-10T04:18:51;72.40;;;32.78;;
33367;SDS011;19724;51.114;13.906;2022-12-10T04:21:17;71.68;;;32.80;;
33367;SDS011;19724;51.114;13.906;2022-12-10T04:24:02;54.83;;;24.10;;
33367;SDS011;19724;51.114;13.906;2022-12-10T04:26:47;67.65;;;31.80;;
33367;SDS011;19724;51.114;13.906;2022-12-10T04:29:25;68.05;;;31.73;;
33367;SDS011;19724;51.114;13.906;2022-12-10T04:31:52;69.00;;;32.58;;
33367;SDS011;19724;51.114;13.906;2022-12-10T04:34:18;69.50;;;31.15;;
33367;SDS011;19724;51.114;13.906;2022-12-10T04:36:44;68.53;;;32.03;;
33367;SDS011;19724;51.114;13.906;2022-12-10T04:39:10;66.13;;;32.83;;
33367;SDS011;19724;51.114;13.906;2022-12-10T04:41:37;66.50;;;31.83;;
33367;SDS011;19724;51.114;13.906;2022-12-10T04:44:04;70.65;;;32.85;;
33367;SDS011;19724;51.114;13.906;2022-12-10T04:46:30;71.43;;;34.30;;
33367;SDS011;19724;51.114;13.906;2022-12-10T04:48:55;64.32;;;30.27;;
33367;SDS011;19724;51.114;13.906;2022-12-10T04:51:21;64.97;;;31.08;;
33367;SDS011;19724;51.114;13.906;2022-12-10T04:53:46;69.45;;;34.03;;
33367;SDS011;19724;51.114;13.906;2022-12-10T04:56:12;69.13;;;32.13;;
33367;SDS011;19724;51.114;13.906;2022-12-10T04:58:37;68.68;;;33.70;;
33367;SDS011;19724;51.114;13.906;2022-12-10T05:01:03;71.43;;;34.92;;
33367;SDS011;19724;51.114;13.906;2022-12-10T05:03:29;70.88;;;33.58;;
33367;SDS011;19724;51.114;13.906;2022-12-10T05:05:55;71.95;;;33.20;;
33367;SDS011;19724;51.114;13.906;2022-12-10T05:08:25;74.65;;;34.45;;
33367;SDS011;19724;51.114;13.906;2022-12-10T05:10:50;69.90;;;33.70;;
33367;SDS011;19724;51.114;13.906;2022-12-10T05:13:16;73.75;;;35.15;;
33367;SDS011;19724;51.114;13.906;2022-12-10T05:15:41;69.80;;;34.47;;
33367;SDS011;19724;51.114;13.906;2022-12-10T05:18:06;65.97;;;34.05;;
33367;SDS011;19724;51.114;13.906;2022-12-10T05:20:32;71.20;;;33.83;;
33367;SDS011;19724;51.114;13.906;2022-12-10T05:22:57;75.78;;;34.92;;
33367;SDS011;19724;51.114;13.906;2022-12-10T05:25:41;66.68;;;32.63;;
33367;SDS011;19724;51.114;13.906;2022-12-10T05:28:20;60.63;;;32.15;;
33367;SDS011;19724;51.114;13.906;2022-12-10T05:30:46;70.43;;;33.78;;
33367;SDS011;19724;51.114;13.906;2022-12-10T05:33:12;68.80;;;32.03;;
33367;SDS011;19724;51.114;13.906;2022-12-10T05:35:38;73.57;;;34.85;;
33367;SDS011;19724;51.114;13.906;2022-12-10T05:38:04;70.70;;;32.22;;
33367;SDS011;19724;51.114;13.906;2022-12-10T05:40:30;71.57;;;32.83;;
33367;SDS011;19724;51.114;13.906;2022-12-10T05:42:59;74.18;;;31.40;;
33367;SDS011;19724;51.114;13.906;2022-12-10T05:45:24;68.05;;;34.28;;
33367;SDS011;19724;51.114;13.906;2022-12-10T05:47:50;59.72;;;30.70;;
33367;SDS011;19724;51.114;13.906;2022-12-10T05:50:15;60.55;;;29.48;;
33367;SDS011;19724;51.114;13.906;2022-12-10T05:52:41;63.13;;;30.02;;
33367;SDS011;19724;51.114;13.906;2022-12-10T05:55:06;62.40;;;30.83;;
33367;SDS011;19724;51.114;13.906;2022-12-10T05:57:32;61.08;;;31.55;;
33367;SDS011;19724;51.114;13.906;2022-12-10T05:59:57;66.50;;;31.15;;
33367;SDS011;19724;51.114;13.906;2022-12-10T06:02:23;71.40;;;32.58;;
33367;SDS011;19724;51.114;13.906;2022-12-10T06:04:48;68.05;;;30.83;;
33367;SDS011;19724;51.114;13.906;2022-12-10T06:07:14;64.53;;;31.08;;
33367;SDS011;19724;51.114;13.906;2022-12-10T06:09:39;64.65;;;29.27;;
33367;SDS011;19724;51.114;13.906;2022-12-10T06:12:05;66.82;;;32.67;;
33367;SDS011;19724;51.114;13.906;2022-12-10T06:14:30;62.13;;;29.85;;
33367;SDS011;19724;51.114;13.906;2022-12-10T06:16:56;61.80;;;31.20;;
33367;SDS011;19724;51.114;13.906;2022-12-10T06:19:21;68.00;;;31.70;;
33367;SDS011;19724;51.114;13.906;2022-12-10T06:21:47;71.85;;;32.92;;
33367;SDS011;19724;51.114;13.906;2022-12-10T06:24:12;64.85;;;29.48;;
33367;SDS011;19724;51.114;13.906;2022-12-10T06:26:38;73.45;;;32.75;;
33367;SDS011;19724;51.114;13.906;2022-12-10T06:29:03;63.45;;;30.85;;
33367;SDS011;19724;51.114;13.906;2022-12-10T06:31:29;68.75;;;32.38;;
33367;SDS011;19724;51.114;13.906;2022-12-10T06:33:55;76.15;;;33.85;;
33367;SDS011;19724;51.114;13.906;2022-12-10T06:36:21;78.05;;;34.63;;
33367;SDS011;19724;51.114;13.906;2022-12-10T06:38:47;77.63;;;35.88;;
33367;SDS011;19724;51.114;13.906;2022-12-10T06:41:13;70.93;;;33.35;;
33367;SDS011;19724;51.114;13.906;2022-12-10T06:43:40;69.78;;;33.42;;
33367;SDS011;19724;51.114;13.906;2022-12-10T06:46:06;87.70;;;36.08;;
33367;SDS011;19724;51.114;13.906;2022-12-10T06:48:33;76.65;;;35.13;;
33367;SDS011;19724;51.114;13.906;2022-12-10T06:50:59;74.03;;;34.47;;
33367;SDS011;19724;51.114;13.906;2022-12-10T06:53:25;85.28;;;38.53;;
33367;SDS011;19724;51.114;13.906;2022-12-10T06:55:50;83.13;;;38.35;;
33367;SDS011;19724;51.114;13.906;2022-12-10T06:58:16;88.90;;;39.47;;
33367;SDS011;19724;51.114;13.906;2022-12-10T07:00:41;82.35;;;38.08;;
33367;SDS011;19724;51.114;13.906;2022-12-10T07:03:06;83.15;;;36.42;;
33367;SDS011;19724;51.114;13.906;2022-12-10T07:05:32;70.63;;;34.20;;
33367;SDS011;19724;51.114;13.906;2022-12-10T07:07:57;75.15;;;34.55;;
33367;SDS011;19724;51.114;13.906;2022-12-10T07:10:23;81.95;;;35.10;;
33367;SDS011;19724;51.114;13.906;2022-12-10T07:12:49;82.60;;;37.13;;
33367;SDS011;19724;51.114;13.906;2022-12-10T07:15:14;76.80;;;35.43;;
33367;SDS011;19724;51.114;13.906;2022-12-10T07:17:40;78.75;;;33.30;;
33367;SDS011;19724;51.114;13.906;2022-12-10T07:20:06;90.05;;;38.72;;
33367;SDS011;19724;51.114;13.906;2022-12-10T07:22:34;72.93;;;35.35;;
33367;SDS011;19724;51.114;13.906;2022-12-10T07:25:00;71.57;;;35.20;;
33367;SDS011;19724;51.114;13.906;2022-12-10T07:27:26;83.40;;;38.55;;
33367;SDS011;19724;51.114;13.906;2022-12-10T07:29:52;82.93;;;36.70;;
33367;SDS011;19724;51.114;13.906;2022-12-10T07:32:17;86.78;;;37.63;;
33367;SDS011;19724;51.114;13.906;2022-12-10T07:34:43;76.80;;;35.88;;
33367;SDS011;19724;51.114;13.906;2022-12-10T07:37:21;81.50;;;36.20;;
33367;SDS011;19724;51.114;13.906;2022-12-10T07:39:47;80.70;;;37.70;;
33367;SDS011;19724;51.114;13.906;2022-12-10T07:42:13;83.97;;;38.80;;
33367;SDS011;19724;51.114;13.906;2022-12-10T07:44:38;83.93;;;38.33;;
33367;SDS011;19724;51.114;13.906;2022-12-10T07:47:04;82.25;;;36.15;;
33367;SDS011;19724;51.114;13.906;2022-12-10T07:49:32;85.45;;;39.05;;
33367;SDS011;19724;51.114;13.906;2022-12-10T07:51:58;93.05;;;38.63;;
33367;SDS011;19724;51.114;13.906;2022-12-10T07:54:24;85.57;;;38.53;;
33367;SDS011;19724;51.114;13.906;2022-12-10T07:56:50;86.10;;;37.50;;
33367;SDS011;19724;51.114;13.906;2022-12-10T07:59:15;83.05;;;38.55;;
33367;SDS011;19724;51.114;13.906;2022-12-10T08:01:41;85.53;;;38.50;;
33367;SDS011;19724;51.114;13.906;2022-12-10T08:04:09;84.53;;;36.22;;
33367;SDS011;19724;51.114;13.906;2022-12-10T08:06:35;90.32;;;41.60;;
33367;SDS011;19724;51.114;13.906;2022-12-10T08:09:00;83.15;;;38.80;;
33367;SDS011;19724;51.114;13.906;2022-12-10T08:11:26;81.85;;;37.40;;
33367;SDS011;19724;51.114;13.906;2022-12-10T08:13:52;90.68;;;38.50;;
33367;SDS011;19724;51.114;13.906;2022-12-10T08:16:19;84.25;;;38.72;;
33367;SDS011;19724;51.114;13.906;2022-12-10T08:18:53;87.03;;;39.53;;
33367;SDS011;19724;51.114;13.906;2022-12-10T08:21:24;84.38;;;39.22;;
33367;SDS011;19724;51.114;13.906;2022-12-10T08:23:52;89.63;;;39.50;;
33367;SDS011;19724;51.114;13.906;2022-12-10T08:26:22;86.50;;;39.78;;
33367;SDS011;19724;51.114;13.906;2022-12-10T08:28:52;81.68;;;36.00;;
33367;SDS011;19724;51.114;13.906;2022-12-10T08:31:19;97.60;;;43.47;;
33367;SDS011;19724;51.114;13.906;2022-12-10T08:33:48;92.25;;;40.33;;
33367;SDS011;19724;51.114;13.906;2022-12-10T08:36:14;82.68;;;36.15;;
33367;SDS011;19724;51.114;13.906;2022-12-10T08:38:42;86.82;;;38.42;;
33367;SDS011;19724;51.114;13.906;2022-12-10T08:41:17;85.75;;;38.85;;
33367;SDS011;19724;51.114;13.906;2022-12-10T08:43:44;90.45;;;38.92;;
33367;SDS011;19724;51.114;13.906;2022-12-10T08:46:15;88.50;;;38.55;;
33367;SDS011;19724;51.114;13.906;2022-12-10T08:48:41;87.10;;;39.38;;
33367;SDS011;19724;51.114;13.906;2022-12-10T08:51:08;86.28;;;39.85;;
33367;SDS011;19724;51.114;13.906;2022-12-10T08:53:35;86.47;;;38.92;;
33367;SDS011;19724;51.114;13.906;2022-12-10T08:56:04;82.20;;;36.67;;
33367;SDS011;19724;51.114;13.906;2022-12-10T08:58:35;80.28;;;37.50;;
33367;SDS011;19724;51.114;13.906;2022-12-10T09:01:05;74.93;;;37.92;;
33367;SDS011;19724;51.114;13.906;2022-12-10T09:03:35;86.25;;;38.30;;
33367;SDS011;19724;51.114;13.906;2022-12-10T09:06:02;82.97;;;37.42;;
33367;SDS011;19724;51.114;13.906;2022-12-10T09:08:33;79.18;;;37.78;;
33367;SDS011;19724;51.114;13.906;2022-12-10T09:11:03;81.13;;;34.67;;
33367;SDS011;19724;51.114;13.906;2022-12-10T09:13:32;74.97;;;34.85;;
33367;SDS011;19724;51.114;13.906;2022-12-10T09:15:58;67.38;;;32.47;;
33367;SDS011;19724;51.114;13.906;2022-12-10T09:18:24;74.10;;;35.22;;
33367;SDS011;19724;51.114;13.906;2022-12-10T09:20:49;68.35;;;35.55;;
33367;SDS011;19724;51.114;13.906;2022-12-10T09:23:15;77.70;;;35.08;;
33367;SDS011;19724;51.114;13.906;2022-12-10T09:25:40;77.22;;;35.22;;
33367;SDS011;19724;51.114;13.906;2022-12-10T09:28:06;65.13;;;33.95;;
33367;SDS011;19724;51.114;13.906;2022-12-10T09:30:31;65.55;;;33.75;;
33367;SDS011;19724;51.114;13.906;2022-12-10T09:32:57;66.72;;;33.45;;
33367;SDS011;19724;51.114;13.906;2022-12-10T09:35:23;68.93;;;33.28;;
33367;SDS011;19724;51.114;13.906;2022-12-10T09:37:48;65.38;;;33.53;;
33367;SDS011;19724;51.114;13.906;2022-12-10T09:40:16;67.20;;;32.83;;
33367;SDS011;19724;51.114;13.906;2022-12-10T09:43:04;76.03;;;35.15;;
33367;SDS011;19724;51.114;13.906;2022-12-10T09:48:18;70.05;;;34.65;;
33367;SDS011;19724;51.114;13.906;2022-12-10T09:51:32;74.05;;;37.05;;
33367;SDS011;19724;51.114;13.906;2022-12-10T09:53:44;64.00;;;35.73;;
33367;SDS011;19724;51.114;13.906;2022-12-10T09:56:16;73.70;;;34.88;;
33367;SDS011;19724;51.114;13.906;2022-12-10T09:58:47;82.47;;;40.20;;
33367;SDS011;19724;51.114;13.906;2022-12-10T10:01:13;73.18;;;36.83;;
33367;SDS011;19724;51.114;13.906;2022-12-10T10:03:42;85.78;;;40.70;;
33367;SDS011;19724;51.114;13.906;2022-12-10T10:06:09;76.60;;;37.72;;
33367;SDS011;19724;51.114;13.906;2022-12-10T10:08:41;77.43;;;40.40;;
33367;SDS011;19724;51.114;13.906;2022-12-10T10:11:19;82.40;;;40.55;;
33367;SDS011;19724;51.114;13.906;2022-12-10T10:17:12;73.30;;;36.35;;
33367;SDS011;19724;51.114;13.906;2022-12-10T10:19:39;72.88;;;36.92;;
33367;SDS011;19724;51.114;13.906;2022-12-10T10:22:06;74.65;;;37.55;;
33367;SDS011;19724;51.114;13.906;2022-12-10T10:24:35;79.88;;;37.35;;
33367;SDS011;19724;51.114;13.906;2022-12-10T10:27:17;83.93;;;39.72;;
33367;SDS011;19724;51.114;13.906;2022-12-10T10:29:46;69.32;;;35.00;;
33367;SDS011;19724;51.114;13.906;2022-12-10T10:32:22;75.13;;;36.50;;
33367;SDS011;19724;51.114;13.906;2022-12-10T10:34:53;74.70;;;35.10;;
33367;SDS011;19724;51.114;13.906;2022-12-10T10:37:21;70.88;;;35.50;;
33367;SDS011;19724;51.114;13.906;2022-12-10T10:39:53;75.85;;;36.83;;
33367;SDS011;19724;51.114;13.906;2022-12-10T10:47:49;68.72;;;32.58;;
33367;SDS011;19724;51.114;13.906;2022-12-10T10:50:40;65.00;;;32.47;;
33367;SDS011;19724;51.114;13.906;2022-12-10T10:55:51;69.25;;;33.65;;
33367;SDS011;19724;51.114;13.906;2022-12-10T10:58:21;72.18;;;35.25;;
33367;SDS011;19724;51.114;13.906;2022-12-10T11:00:58;78.43;;;38.88;;
33367;SDS011;19724;51.114;13.906;2022-12-10T11:03:33;83.25;;;38.17;;
33367;SDS011;19724;51.114;13.906;2022-12-10T11:06:00;69.95;;;34.03;;
33367;SDS011;19724;51.114;13.906;2022-12-10T11:08:30;71.75;;;34.00;;
33367;SDS011;19724;51.114;13.906;2022-12-10T11:11:01;70.47;;;35.47;;
33367;SDS011;19724;51.114;13.906;2022-12-10T11:13:35;77.88;;;35.20;;
33367;SDS011;19724;51.114;13.906;2022-12-10T11:18:58;60.22;;;32.28;;
33367;SDS011;19724;51.114;13.906;2022-12-10T11:21:33;61.00;;;30.88;;
33367;SDS011;19724;51.114;13.906;2022-12-10T11:23:59;66.93;;;31.73;;
33367;SDS011;19724;51.114;13.906;2022-12-10T11:31:49;58.15;;;28.92;;
33367;SDS011;19724;51.114;13.906;2022-12-10T11:45:38;56.03;;;30.08;;
33367;SDS011;19724;51.114;13.906;2022-12-10T11:48:33;58.97;;;28.00;;
33367;SDS011;19724;51.114;13.906;2022-12-10T11:51:05;42.63;;;22.10;;
33367;SDS011;19724;51.114;13.906;2022-12-10T11:53:57;56.50;;;29.95;;
33367;SDS011;19724;51.114;13.906;2022-12-10T11:56:47;46.92;;;26.73;;
33367;SDS011;19724;51.114;13.906;2022-12-10T12:05:00;50.35;;;25.33;;
33367;SDS011;19724;51.114;13.906;2022-12-10T12:08:04;50.22;;;28.80;;
33367;SDS011;19724;51.114;13.906;2022-12-10T12:13:27;49.78;;;26.20;;
33367;SDS011;19724;51.114;13.906;2022-12-10T12:16:03;55.97;;;27.55;;
33367;SDS011;19724;51.114;13.906;2022-12-10T12:30:03;45.45;;;24.00;;
33367;SDS011;19724;51.114;13.906;2022-12-10T12:35:12;41.35;;;23.35;;
33367;SDS011;19724;51.114;13.906;2022-12-10T12:37:48;44.60;;;25.58;;
33367;SDS011;19724;51.114;13.906;2022-12-10T12:46:40;41.67;;;22.65;;
33367;SDS011;19724;51.114;13.906;2022-12-10T12:49:14;43.30;;;22.95;;
33367;SDS011;19724;51.114;13.906;2022-12-10T12:51:58;43.83;;;24.20;;
33367;SDS011;19724;51.114;13.906;2022-12-10T12:54:46;44.95;;;24.70;;
33367;SDS011;19724;51.114;13.906;2022-12-10T13:04:10;39.38;;;22.38;;
33367;SDS011;19724;51.114;13.906;2022-12-10T13:06:37;40.95;;;23.25;;
33367;SDS011;19724;51.114;13.906;2022-12-10T13:15:37;38.78;;;21.20;;
33367;SDS011;19724;51.114;13.906;2022-12-10T13:25:55;45.72;;;27.00;;
33367;SDS011;19724;51.114;13.906;2022-12-10T13:28:27;51.20;;;25.80;;
33367;SDS011;19724;51.114;13.906;2022-12-10T13:31:18;41.00;;;24.75;;
33367;SDS011;19724;51.114;13.906;2022-12-10T13:39:13;46.75;;;26.10;;
33367;SDS011;19724;51.114;13.906;2022-12-10T13:42:40;52.20;;;28.38;;
33367;SDS011;19724;51.114;13.906;2022-12-10T13:45:23;43.03;;;25.08;;
33367;SDS011;19724;51.114;13.906;2022-12-10T13:51:11;44.28;;;26.17;;
33367;SDS011;19724;51.114;13.906;2022-12-10T13:53:46;55.40;;;30.88;;
33367;SDS011;19724;51.114;13.906;2022-12-10T13:56:22;49.65;;;27.95;;
33367;SDS011;19724;51.114;13.906;2022-12-10T14:07:37;51.33;;;27.92;;
33367;SDS011;19724;51.114;13.906;2022-12-10T14:10:03;52.15;;;28.75;;
33367;SDS011;19724;51.114;13.906;2022-12-10T14:12:39;49.97;;;28.98;;
33367;SDS011;19724;51.114;13.906;2022-12-10T14:15:08;52.38;;;30.05;;
33367;SDS011;19724;51.114;13.906;2022-12-10T14:17:42;52.35;;;29.30;;
33367;SDS011;19724;51.114;13.906;2022-12-10T14:20:27;49.85;;;28.95;;
33367;SDS011;19724;51.114;13.906;2022-12-10T14:22:56;46.13;;;28.27;;
33367;SDS011;19724;51.114;13.906;2022-12-10T14:25:42;55.50;;;31.15;;
33367;SDS011;19724;51.114;13.906;2022-12-10T14:28:13;51.70;;;29.77;;
33367;SDS011;19724;51.114;13.906;2022-12-10T14:30:42;52.95;;;31.10;;
33367;SDS011;19724;51.114;13.906;2022-12-10T14:33:13;60.78;;;30.10;;
33367;SDS011;19724;51.114;13.906;2022-12-10T14:35:46;49.92;;;29.33;;
33367;SDS011;19724;51.114;13.906;2022-12-10T14:38:46;59.13;;;31.17;;
33367;SDS011;19724;51.114;13.906;2022-12-10T14:41:05;60.15;;;31.85;;
33367;SDS011;19724;51.114;13.906;2022-12-10T14:43:38;56.65;;;29.75;;
33367;SDS011;19724;51.114;13.906;2022-12-10T14:46:05;60.00;;;32.08;;
33367;SDS011;19724;51.114;13.906;2022-12-10T14:48:40;59.92;;;31.38;;
33367;SDS011;19724;51.114;13.906;2022-12-10T14:51:15;51.28;;;29.27;;
33367;SDS011;19724;51.114;13.906;2022-12-10T14:53:43;63.55;;;31.80;;
33367;SDS011;19724;51.114;13.906;2022-12-10T14:56:15;63.08;;;32.20;;
33367;SDS011;19724;51.114;13.906;2022-12-10T14:58:51;58.80;;;30.10;;
33367;SDS011;19724;51.114;13.906;2022-12-10T15:01:26;55.95;;;31.05;;
33367;SDS011;19724;51.114;13.906;2022-12-10T15:03:52;54.65;;;31.88;;
33367;SDS011;19724;51.114;13.906;2022-12-10T15:06:19;62.33;;;33.83;;
33367;SDS011;19724;51.114;13.906;2022-12-10T15:08:46;63.40;;;30.65;;
33367;SDS011;19724;51.114;13.906;2022-12-10T15:11:16;58.70;;;33.10;;
33367;SDS011;19724;51.114;13.906;2022-12-10T15:13:44;72.40;;;34.85;;
33367;SDS011;19724;51.114;13.906;2022-12-10T15:16:20;67.43;;;34.03;;
33367;SDS011;19724;51.114;13.906;2022-12-10T15:19:51;66.43;;;33.80;;
33367;SDS011;19724;51.114;13.906;2022-12-10T15:21:52;63.95;;;34.67;;
33367;SDS011;19724;51.114;13.906;2022-12-10T15:24:38;71.72;;;36.05;;
33367;SDS011;19724;51.114;13.906;2022-12-10T15:27:16;69.20;;;36.13;;
33367;SDS011;19724;51.114;13.906;2022-12-10T15:29:43;70.72;;;36.08;;
33367;SDS011;19724;51.114;13.906;2022-12-10T15:32:13;72.20;;;37.60;;
33367;SDS011;19724;51.114;13.906;2022-12-10T15:34:55;73.57;;;36.92;;
33367;SDS011;19724;51.114;13.906;2022-12-10T15:37:27;75.80;;;39.70;;
33367;SDS011;19724;51.114;13.906;2022-12-10T15:39:59;73.47;;;37.83;;
33367;SDS011;19724;51.114;13.906;2022-12-10T15:42:49;70.68;;;34.03;;
33367;SDS011;19724;51.114;13.906;2022-12-10T15:45:16;75.30;;;38.92;;
33367;SDS011;19724;51.114;13.906;2022-12-10T15:47:50;76.45;;;37.10;;
33367;SDS011;19724;51.114;13.906;2022-12-10T15:50:16;77.22;;;39.50;;
33367;SDS011;19724;51.114;13.906;2022-12-10T15:52:42;83.95;;;39.65;;
33367;SDS011;19724;51.114;13.906;2022-12-10T15:55:10;81.88;;;41.55;;
33367;SDS011;19724;51.114;13.906;2022-12-10T15:57:36;84.95;;;41.40;;
33367;SDS011;19724;51.114;13.906;2022-12-10T16:00:05;85.57;;;41.78;;
33367;SDS011;19724;51.114;13.906;2022-12-10T16:07:52;83.32;;;41.92;;
33367;SDS011;19724;51.114;13.906;2022-12-10T16:10:21;81.97;;;40.88;;
33367;SDS011;19724;51.114;13.906;2022-12-10T16:12:57;76.00;;;37.60;;
33367;SDS011;19724;51.114;13.906;2022-12-10T16:15:26;79.43;;;39.47;;
33367;SDS011;19724;51.114;13.906;2022-12-10T16:17:53;74.55;;;39.78;;
33367;SDS011;19724;51.114;13.906;2022-12-10T16:20:26;71.60;;;36.10;;
33367;SDS011;19724;51.114;13.906;2022-12-10T16:22:54;73.70;;;38.05;;
33367;SDS011;19724;51.114;13.906;2022-12-10T16:25:22;75.10;;;36.22;;
33367;SDS011;19724;51.114;13.906;2022-12-10T16:27:49;70.47;;;37.53;;
33367;SDS011;19724;51.114;13.906;2022-12-10T16:30:17;72.15;;;36.40;;